sensor_id;sensor_type;location;lat;lon;timestamp;pressure;altitude;pressure_sealevel;temperature;humidity
61761;BME280;47664;51.660;-0.100;2023-01-30T00:00:02;101456.86;;;4.21;72.10
61761;BME280;47664;51.660;-0.100;2023-01-30T00:02:35;101450.35;;;4.18;71.90
61761;BME280;47664;51.660;-0.100;2023-01-30T00:05:07;101451.47;;;4.42;71.56
61761;BME280;47664;51.660;-0.100;2023-01-30T00:07:39;101454.38;;;4.35;70.84
61761;BME280;47664;51.660;-0.100;2023-01-30T00:10:13;101453.74;;;4.66;70.88
61761;BME280;47664;51.660;-0.100;2023-01-30T00:12:44;101454.71;;;4.42;70.82
61761;BME280;47664;51.660;-0.100;2023-01-30T00:15:17;101449.74;;;4.49;70.82
61761;BME280;47664;51.660;-0.100;2023-01-30T00:17:49;101444.89;;;4.01;71.33
61761;BME280;47664;51.660;-0.100;2023-01-30T00:20:21;101440.20;;;4.43;71.46
61761;BME280;47664;51.660;-0.100;2023-01-30T00:22:53;101445.58;;;4.53;70.34
61761;BME280;47664;51.660;-0.100;2023-01-30T00:25:26;101444.32;;;4.58;69.79
61761;BME280;47664;51.660;-0.100;2023-01-30T00:27:59;101434.97;;;4.32;70.42
61761;BME280;47664;51.660;-0.100;2023-01-30T00:30:32;101429.93;;;4.37;71.31
61761;BME280;47664;51.660;-0.100;2023-01-30T00:33:05;101434.59;;;4.14;72.31
61761;BME280;47664;51.660;-0.100;2023-01-30T00:35:37;101437.30;;;4.68;71.10
61761;BME280;47664;51.660;-0.100;2023-01-30T00:38:13;101434.33;;;4.26;71.47
61761;BME280;47664;51.660;-0.100;2023-01-30T00:40:46;101424.20;;;4.30;71.82
61761;BME280;47664;51.660;-0.100;2023-01-30T00:43:19;101422.85;;;4.20;72.52
61761;BME280;47664;51.660;-0.100;2023-01-30T00:45:52;101426.21;;;3.92;71.82
61761;BME280;47664;51.660;-0.100;2023-01-30T00:48:25;101428.52;;;4.47;71.05
61761;BME280;47664;51.660;-0.100;2023-01-30T00:50:58;101425.63;;;4.07;71.65
61761;BME280;47664;51.660;-0.100;2023-01-30T00:53:31;101431.47;;;4.51;71.90
61761;BME280;47664;51.660;-0.100;2023-01-30T00:56:04;101419.10;;;4.62;71.78
61761;BME280;47664;51.660;-0.100;2023-01-30T00:58:37;101418.28;;;4.21;71.98
61761;BME280;47664;51.660;-0.100;2023-01-30T01:01:09;101417.70;;;4.19;72.94
61761;BME280;47664;51.660;-0.100;2023-01-30T01:03:41;101415.29;;;4.15;73.31
61761;BME280;47664;51.660;-0.100;2023-01-30T01:06:13;101405.68;;;4.23;73.48
61761;BME280;47664;51.660;-0.100;2023-01-30T01:08:46;101402.60;;;3.99;72.22
61761;BME280;47664;51.660;-0.100;2023-01-30T01:11:18;101395.74;;;4.47;72.26
61761;BME280;47664;51.660;-0.100;2023-01-30T01:13:51;101393.36;;;4.52;72.21
61761;BME280;47664;51.660;-0.100;2023-01-30T01:16:24;101389.67;;;4.49;72.13
61761;BME280;47664;51.660;-0.100;2023-01-30T01:18:57;101399.31;;;4.33;72.09
61761;BME280;47664;51.660;-0.100;2023-01-30T01:21:30;101402.96;;;4.65;72.62
61761;BME280;47664;51.660;-0.100;2023-01-30T01:24:03;101390.87;;;4.74;72.76
61761;BME280;47664;51.660;-0.100;2023-01-30T01:26:36;101382.64;;;4.24;72.06
61761;BME280;47664;51.660;-0.100;2023-01-30T01:29:09;101375.52;;;4.67;72.22
61761;BME280;47664;51.660;-0.100;2023-01-30T01:31:42;101358.14;;;4.55;72.05
61761;BME280;47664;51.660;-0.100;2023-01-30T01:34:15;101353.32;;;4.39;72.27
61761;BME280;47664;51.660;-0.100;2023-01-30T01:36:48;101343.14;;;4.56;72.51
61761;BME280;47664;51.660;-0.100;2023-01-30T01:39:21;101338.48;;;4.53;72.29
61761;BME280;47664;51.660;-0.100;2023-01-30T01:41:52;101340.68;;;4.66;71.64
61761;BME280;47664;51.660;-0.100;2023-01-30T01:44:24;101346.93;;;4.79;71.92
61761;BME280;47664;51.660;-0.100;2023-01-30T01:46:55;101369.18;;;4.63;72.20
61761;BME280;47664;51.660;-0.100;2023-01-30T01:49:31;101373.78;;;5.09;71.73
61761;BME280;47664;51.660;-0.100;2023-01-30T01:52:06;101378.27;;;5.02;72.94
61761;BME280;47664;51.660;-0.100;2023-01-30T01:54:43;101379.98;;;4.34;72.08
61761;BME280;47664;51.660;-0.100;2023-01-30T01:57:14;101383.29;;;5.26;72.23
61761;BME280;47664;51.660;-0.100;2023-01-30T01:59:47;101387.28;;;4.73;72.27
61761;BME280;47664;51.660;-0.100;2023-01-30T02:02:21;101388.43;;;5.24;71.90
61761;BME280;47664;51.660;-0.100;2023-01-30T02:04:54;101379.02;;;4.86;73.13
61761;BME280;47664;51.660;-0.100;2023-01-30T02:07:28;101382.65;;;5.28;72.23
61761;BME280;47664;51.660;-0.100;2023-01-30T02:10:02;101391.63;;;5.32;71.91
61761;BME280;47664;51.660;-0.100;2023-01-30T02:12:35;101387.54;;;4.88;72.23
61761;BME280;47664;51.660;-0.100;2023-01-30T02:15:09;101385.04;;;5.09;71.99
61761;BME280;47664;51.660;-0.100;2023-01-30T02:17:42;101379.30;;;5.18;71.35
61761;BME280;47664;51.660;-0.100;2023-01-30T02:20:17;101379.89;;;5.61;70.80
61761;BME280;47664;51.660;-0.100;2023-01-30T02:25:55;101375.05;;;6.03;71.27
61761;BME280;47664;51.660;-0.100;2023-01-30T02:28:42;101376.26;;;5.57;70.84
61761;BME280;47664;51.660;-0.100;2023-01-30T02:31:30;101377.79;;;6.26;70.28
61761;BME280;47664;51.660;-0.100;2023-01-30T02:34:08;101378.15;;;5.88;70.03
61761;BME280;47664;51.660;-0.100;2023-01-30T02:36:45;101383.17;;;5.65;70.11
61761;BME280;47664;51.660;-0.100;2023-01-30T02:39:25;101384.50;;;5.84;69.56
61761;BME280;47664;51.660;-0.100;2023-01-30T02:42:07;101387.75;;;5.93;69.43
61761;BME280;47664;51.660;-0.100;2023-01-30T02:44:45;101387.77;;;6.29;69.04
61761;BME280;47664;51.660;-0.100;2023-01-30T02:47:22;101396.15;;;6.20;69.55
61761;BME280;47664;51.660;-0.100;2023-01-30T02:49:59;101398.19;;;5.83;69.41
61761;BME280;47664;51.660;-0.100;2023-01-30T02:52:33;101400.09;;;6.42;68.23
61761;BME280;47664;51.660;-0.100;2023-01-30T02:55:08;101399.53;;;6.27;67.82
61761;BME280;47664;51.660;-0.100;2023-01-30T02:57:40;101391.24;;;6.54;67.08
61761;BME280;47664;51.660;-0.100;2023-01-30T03:00:13;101393.72;;;6.62;67.76
61761;BME280;47664;51.660;-0.100;2023-01-30T03:02:55;101396.62;;;6.38;67.07
61761;BME280;47664;51.660;-0.100;2023-01-30T03:05:40;101395.55;;;6.30;67.08
61761;BME280;47664;51.660;-0.100;2023-01-30T03:08:19;101396.73;;;6.56;67.03
61761;BME280;47664;51.660;-0.100;2023-01-30T03:10:54;101393.25;;;6.54;66.56
61761;BME280;47664;51.660;-0.100;2023-01-30T03:13:28;101400.50;;;6.55;66.89
61761;BME280;47664;51.660;-0.100;2023-01-30T03:16:05;101399.41;;;6.04;67.45
61761;BME280;47664;51.660;-0.100;2023-01-30T03:18:40;101405.46;;;6.02;67.74
61761;BME280;47664;51.660;-0.100;2023-01-30T03:21:12;101401.09;;;6.49;67.44
61761;BME280;47664;51.660;-0.100;2023-01-30T03:23:44;101404.36;;;6.31;66.91
61761;BME280;47664;51.660;-0.100;2023-01-30T03:26:19;101413.73;;;6.29;67.07
61761;BME280;47664;51.660;-0.100;2023-01-30T03:28:53;101411.91;;;6.29;66.95
61761;BME280;47664;51.660;-0.100;2023-01-30T03:31:25;101417.14;;;6.70;66.28
61761;BME280;47664;51.660;-0.100;2023-01-30T03:33:58;101421.28;;;6.40;66.64
61761;BME280;47664;51.660;-0.100;2023-01-30T03:36:30;101421.43;;;6.47;67.29
61761;BME280;47664;51.660;-0.100;2023-01-30T03:39:02;101422.07;;;6.58;66.70
61761;BME280;47664;51.660;-0.100;2023-01-30T03:41:34;101420.41;;;6.66;66.02
61761;BME280;47664;51.660;-0.100;2023-01-30T03:44:07;101418.70;;;6.90;65.61
61761;BME280;47664;51.660;-0.100;2023-01-30T03:46:39;101424.38;;;6.39;64.99
61761;BME280;47664;51.660;-0.100;2023-01-30T03:49:11;101422.89;;;7.43;64.38
61761;BME280;47664;51.660;-0.100;2023-01-30T03:51:43;101422.15;;;7.16;64.19
61761;BME280;47664;51.660;-0.100;2023-01-30T03:54:15;101422.84;;;6.89;64.55
61761;BME280;47664;51.660;-0.100;2023-01-30T03:56:47;101421.74;;;6.44;65.28
61761;BME280;47664;51.660;-0.100;2023-01-30T03:59:20;101422.12;;;6.51;65.90
61761;BME280;47664;51.660;-0.100;2023-01-30T04:01:52;101430.25;;;6.48;67.13
61761;BME280;47664;51.660;-0.100;2023-01-30T04:04:24;101429.85;;;6.26;67.39
61761;BME280;47664;51.660;-0.100;2023-01-30T04:06:56;101427.34;;;6.32;68.02
61761;BME280;47664;51.660;-0.100;2023-01-30T04:09:28;101424.37;;;6.23;68.36
61761;BME280;47664;51.660;-0.100;2023-01-30T04:12:01;101424.09;;;6.23;68.35
61761;BME280;47664;51.660;-0.100;2023-01-30T04:14:33;101425.60;;;6.02;68.42
61761;BME280;47664;51.660;-0.100;2023-01-30T04:17:06;101432.10;;;6.19;68.88
61761;BME280;47664;51.660;-0.100;2023-01-30T04:19:38;101433.10;;;5.38;69.81
61761;BME280;47664;51.660;-0.100;2023-01-30T04:22:10;101430.72;;;5.99;70.18
61761;BME280;47664;51.660;-0.100;2023-01-30T04:24:43;101425.84;;;5.30;71.20
61761;BME280;47664;51.660;-0.100;2023-01-30T04:27:15;101428.55;;;5.96;71.31
61761;BME280;47664;51.660;-0.100;2023-01-30T04:29:47;101433.95;;;5.99;70.52
61761;BME280;47664;51.660;-0.100;2023-01-30T04:32:19;101442.51;;;6.20;69.84
61761;BME280;47664;51.660;-0.100;2023-01-30T04:34:51;101446.54;;;6.14;69.55
61761;BME280;47664;51.660;-0.100;2023-01-30T04:37:23;101451.29;;;6.29;68.54
61761;BME280;47664;51.660;-0.100;2023-01-30T04:39:56;101459.62;;;6.29;68.68
61761;BME280;47664;51.660;-0.100;2023-01-30T04:42:28;101471.76;;;6.24;69.77
61761;BME280;47664;51.660;-0.100;2023-01-30T04:45:00;101473.16;;;6.27;69.09
61761;BME280;47664;51.660;-0.100;2023-01-30T04:47:33;101478.19;;;6.00;70.07
61761;BME280;47664;51.660;-0.100;2023-01-30T04:50:05;101485.93;;;6.10;70.35
61761;BME280;47664;51.660;-0.100;2023-01-30T04:52:37;101488.98;;;5.75;69.78
61761;BME280;47664;51.660;-0.100;2023-01-30T04:55:10;101493.99;;;6.29;70.00
61761;BME280;47664;51.660;-0.100;2023-01-30T04:57:41;101497.21;;;5.69;71.85
61761;BME280;47664;51.660;-0.100;2023-01-30T05:00:15;101502.62;;;5.69;71.17
61761;BME280;47664;51.660;-0.100;2023-01-30T05:02:47;101506.65;;;5.36;71.22
61761;BME280;47664;51.660;-0.100;2023-01-30T05:05:20;101510.73;;;5.95;69.95
61761;BME280;47664;51.660;-0.100;2023-01-30T05:07:52;101505.25;;;5.63;70.44
61761;BME280;47664;51.660;-0.100;2023-01-30T05:10:25;101501.00;;;5.67;70.37
61761;BME280;47664;51.660;-0.100;2023-01-30T05:13:00;101494.57;;;5.40;70.22
61761;BME280;47664;51.660;-0.100;2023-01-30T05:15:33;101506.35;;;5.51;70.05
61761;BME280;47664;51.660;-0.100;2023-01-30T05:18:05;101511.18;;;5.23;70.01
61761;BME280;47664;51.660;-0.100;2023-01-30T05:20:38;101516.08;;;4.90;69.16
61761;BME280;47664;51.660;-0.100;2023-01-30T05:23:10;101514.90;;;4.95;68.39
61761;BME280;47664;51.660;-0.100;2023-01-30T05:25:42;101530.43;;;4.56;67.72
61761;BME280;47664;51.660;-0.100;2023-01-30T05:28:14;101530.65;;;4.87;67.30
61761;BME280;47664;51.660;-0.100;2023-01-30T05:31:21;101533.37;;;5.78;66.73
61761;BME280;47664;51.660;-0.100;2023-01-30T05:33:54;101535.14;;;5.20;66.31
61761;BME280;47664;51.660;-0.100;2023-01-30T05:36:27;101535.15;;;5.24;65.78
61761;BME280;47664;51.660;-0.100;2023-01-30T05:38:59;101543.27;;;5.23;65.54
61761;BME280;47664;51.660;-0.100;2023-01-30T05:41:32;101542.04;;;5.55;64.82
61761;BME280;47664;51.660;-0.100;2023-01-30T05:44:04;101543.96;;;5.34;64.93
61761;BME280;47664;51.660;-0.100;2023-01-30T05:46:36;101544.89;;;5.49;64.49
61761;BME280;47664;51.660;-0.100;2023-01-30T05:49:07;101547.59;;;5.59;64.28
61761;BME280;47664;51.660;-0.100;2023-01-30T05:51:40;101544.30;;;5.52;64.42
61761;BME280;47664;51.660;-0.100;2023-01-30T05:54:12;101539.20;;;5.60;64.46
61761;BME280;47664;51.660;-0.100;2023-01-30T05:56:47;101535.18;;;5.49;64.15
61761;BME280;47664;51.660;-0.100;2023-01-30T05:59:20;101548.53;;;5.66;64.31
61761;BME280;47664;51.660;-0.100;2023-01-30T06:01:52;101559.20;;;5.37;64.53
61761;BME280;47664;51.660;-0.100;2023-01-30T06:04:25;101558.07;;;5.26;63.36
61761;BME280;47664;51.660;-0.100;2023-01-30T06:06:57;101555.68;;;5.33;63.03
61761;BME280;47664;51.660;-0.100;2023-01-30T06:09:30;101553.40;;;5.51;62.52
61761;BME280;47664;51.660;-0.100;2023-01-30T06:12:02;101545.86;;;5.22;62.13
61761;BME280;47664;51.660;-0.100;2023-01-30T06:14:34;101548.58;;;4.77;62.58
61761;BME280;47664;51.660;-0.100;2023-01-30T06:17:06;101545.72;;;4.94;62.18
61761;BME280;47664;51.660;-0.100;2023-01-30T06:19:38;101547.66;;;4.34;62.08
61761;BME280;47664;51.660;-0.100;2023-01-30T06:22:11;101548.86;;;4.54;61.98
61761;BME280;47664;51.660;-0.100;2023-01-30T06:24:43;101557.45;;;4.17;62.14
61761;BME280;47664;51.660;-0.100;2023-01-30T06:27:16;101566.47;;;4.77;62.21
61761;BME280;47664;51.660;-0.100;2023-01-30T06:29:48;101562.50;;;4.50;62.00
61761;BME280;47664;51.660;-0.100;2023-01-30T06:32:20;101565.25;;;4.51;61.93
61761;BME280;47664;51.660;-0.100;2023-01-30T06:34:52;101570.69;;;4.52;60.54
61761;BME280;47664;51.660;-0.100;2023-01-30T06:37:24;101583.41;;;4.80;60.43
61761;BME280;47664;51.660;-0.100;2023-01-30T06:39:57;101595.27;;;4.78;59.73
61761;BME280;47664;51.660;-0.100;2023-01-30T06:42:29;101600.01;;;4.93;59.54
61761;BME280;47664;51.660;-0.100;2023-01-30T06:45:01;101597.57;;;4.75;59.22
61761;BME280;47664;51.660;-0.100;2023-01-30T06:47:36;101598.75;;;4.45;58.68
61761;BME280;47664;51.660;-0.100;2023-01-30T06:50:15;101605.68;;;4.49;59.97
61761;BME280;47664;51.660;-0.100;2023-01-30T06:52:49;101607.83;;;3.91;59.70
61761;BME280;47664;51.660;-0.100;2023-01-30T06:55:23;101610.03;;;4.32;59.45
61761;BME280;47664;51.660;-0.100;2023-01-30T06:58:00;101606.25;;;4.35;59.44
61761;BME280;47664;51.660;-0.100;2023-01-30T07:00:34;101615.33;;;4.31;60.73
61761;BME280;47664;51.660;-0.100;2023-01-30T07:03:08;101611.73;;;4.04;60.11
61761;BME280;47664;51.660;-0.100;2023-01-30T07:05:42;101613.62;;;3.37;60.47
61761;BME280;47664;51.660;-0.100;2023-01-30T07:08:15;101620.17;;;3.98;60.31
61761;BME280;47664;51.660;-0.100;2023-01-30T07:10:47;101629.68;;;3.89;60.23
61761;BME280;47664;51.660;-0.100;2023-01-30T07:13:19;101637.56;;;4.50;59.03
61761;BME280;47664;51.660;-0.100;2023-01-30T07:15:51;101657.97;;;4.52;58.26
61761;BME280;47664;51.660;-0.100;2023-01-30T07:18:23;101675.59;;;4.69;58.42
61761;BME280;47664;51.660;-0.100;2023-01-30T07:20:56;101677.90;;;4.68;58.21
61761;BME280;47664;51.660;-0.100;2023-01-30T07:23:28;101685.63;;;4.80;58.38
61761;BME280;47664;51.660;-0.100;2023-01-30T07:26:01;101690.55;;;4.76;58.48
61761;BME280;47664;51.660;-0.100;2023-01-30T07:28:34;101689.25;;;4.57;59.23
61761;BME280;47664;51.660;-0.100;2023-01-30T07:31:06;101692.13;;;4.86;58.43
61761;BME280;47664;51.660;-0.100;2023-01-30T07:33:38;101700.07;;;5.46;57.62
61761;BME280;47664;51.660;-0.100;2023-01-30T07:36:10;101707.36;;;5.39;57.58
61761;BME280;47664;51.660;-0.100;2023-01-30T07:38:41;101712.83;;;4.75;57.60
61761;BME280;47664;51.660;-0.100;2023-01-30T07:41:14;101716.37;;;4.52;58.78
61761;BME280;47664;51.660;-0.100;2023-01-30T07:43:47;101709.40;;;4.46;59.03
61761;BME280;47664;51.660;-0.100;2023-01-30T07:46:20;101707.47;;;4.46;59.28
61761;BME280;47664;51.660;-0.100;2023-01-30T07:48:52;101704.17;;;4.61;59.11
61761;BME280;47664;51.660;-0.100;2023-01-30T07:51:23;101707.05;;;4.72;58.82
61761;BME280;47664;51.660;-0.100;2023-01-30T07:53:55;101696.20;;;4.47;58.59
61761;BME280;47664;51.660;-0.100;2023-01-30T07:56:28;101691.77;;;4.71;58.54
61761;BME280;47664;51.660;-0.100;2023-01-30T07:59:00;101692.41;;;4.51;57.75
61761;BME280;47664;51.660;-0.100;2023-01-30T08:01:33;101692.56;;;4.73;57.72
61761;BME280;47664;51.660;-0.100;2023-01-30T08:04:05;101702.41;;;4.99;56.51
61761;BME280;47664;51.660;-0.100;2023-01-30T08:06:38;101702.21;;;4.56;54.84
61761;BME280;47664;51.660;-0.100;2023-01-30T08:09:10;101704.44;;;5.11;55.71
61761;BME280;47664;51.660;-0.100;2023-01-30T08:11:42;101700.80;;;5.05;56.30
61761;BME280;47664;51.660;-0.100;2023-01-30T08:14:15;101697.25;;;4.90;54.84
61761;BME280;47664;51.660;-0.100;2023-01-30T08:16:47;101700.26;;;4.91;54.98
61761;BME280;47664;51.660;-0.100;2023-01-30T08:19:19;101699.37;;;5.48;54.21
61761;BME280;47664;51.660;-0.100;2023-01-30T08:21:51;101693.54;;;5.25;54.72
61761;BME280;47664;51.660;-0.100;2023-01-30T08:24:24;101694.67;;;5.32;55.06
61761;BME280;47664;51.660;-0.100;2023-01-30T08:26:55;101689.28;;;4.90;54.46
61761;BME280;47664;51.660;-0.100;2023-01-30T08:29:28;101686.33;;;4.20;56.01
61761;BME280;47664;51.660;-0.100;2023-01-30T08:32:01;101690.48;;;4.39;56.40
61761;BME280;47664;51.660;-0.100;2023-01-30T08:34:34;101699.54;;;4.42;56.48
61761;BME280;47664;51.660;-0.100;2023-01-30T08:37:06;101705.65;;;4.69;56.79
61761;BME280;47664;51.660;-0.100;2023-01-30T08:39:38;101705.23;;;3.91;57.24
61761;BME280;47664;51.660;-0.100;2023-01-30T08:42:10;101714.25;;;4.42;56.49
61761;BME280;47664;51.660;-0.100;2023-01-30T08:44:42;101715.50;;;4.52;56.54
61761;BME280;47664;51.660;-0.100;2023-01-30T08:47:15;101726.69;;;4.41;56.88
61761;BME280;47664;51.660;-0.100;2023-01-30T08:49:47;101732.54;;;4.40;57.07
61761;BME280;47664;51.660;-0.100;2023-01-30T08:52:19;101743.19;;;4.40;56.43
61761;BME280;47664;51.660;-0.100;2023-01-30T08:54:51;101748.28;;;4.34;56.77
61761;BME280;47664;51.660;-0.100;2023-01-30T08:57:23;101748.74;;;4.27;57.20
61761;BME280;47664;51.660;-0.100;2023-01-30T08:59:55;101742.84;;;4.31;57.70
61761;BME280;47664;51.660;-0.100;2023-01-30T09:02:27;101733.26;;;4.37;57.43
61761;BME280;47664;51.660;-0.100;2023-01-30T09:04:59;101735.36;;;4.08;57.19
61761;BME280;47664;51.660;-0.100;2023-01-30T09:07:32;101734.72;;;4.45;56.92
61761;BME280;47664;51.660;-0.100;2023-01-30T09:10:05;101749.46;;;4.67;57.01
61761;BME280;47664;51.660;-0.100;2023-01-30T09:12:36;101766.65;;;4.98;55.29
61761;BME280;47664;51.660;-0.100;2023-01-30T09:15:09;101778.28;;;5.26;54.15
61761;BME280;47664;51.660;-0.100;2023-01-30T09:17:41;101780.08;;;4.93;54.85
61761;BME280;47664;51.660;-0.100;2023-01-30T09:20:14;101768.85;;;4.78;55.48
61761;BME280;47664;51.660;-0.100;2023-01-30T09:22:47;101764.16;;;4.48;56.20
61761;BME280;47664;51.660;-0.100;2023-01-30T09:25:19;101764.76;;;5.10;55.40
61761;BME280;47664;51.660;-0.100;2023-01-30T09:27:52;101778.86;;;4.53;55.87
61761;BME280;47664;51.660;-0.100;2023-01-30T09:30:24;101784.79;;;5.10;55.81
61761;BME280;47664;51.660;-0.100;2023-01-30T09:32:57;101781.70;;;4.87;55.76
61761;BME280;47664;51.660;-0.100;2023-01-30T09:35:29;101778.51;;;4.78;56.37
61761;BME280;47664;51.660;-0.100;2023-01-30T09:38:01;101779.14;;;4.59;57.12
61761;BME280;47664;51.660;-0.100;2023-01-30T09:40:35;101779.79;;;4.92;56.54
61761;BME280;47664;51.660;-0.100;2023-01-30T09:43:19;101780.03;;;4.65;57.69
61761;BME280;47664;51.660;-0.100;2023-01-30T09:46:03;101779.61;;;4.29;57.34
61761;BME280;47664;51.660;-0.100;2023-01-30T09:48:38;101778.22;;;4.19;57.87
61761;BME280;47664;51.660;-0.100;2023-01-30T09:51:22;101779.15;;;4.36;57.82
61761;BME280;47664;51.660;-0.100;2023-01-30T09:54:02;101778.89;;;4.83;56.88
61761;BME280;47664;51.660;-0.100;2023-01-30T09:56:35;101786.31;;;5.07;56.09
61761;BME280;47664;51.660;-0.100;2023-01-30T09:59:09;101791.77;;;5.31;55.65
61761;BME280;47664;51.660;-0.100;2023-01-30T10:01:49;101795.63;;;4.71;55.52
61761;BME280;47664;51.660;-0.100;2023-01-30T10:04:23;101792.48;;;4.83;56.64
61761;BME280;47664;51.660;-0.100;2023-01-30T10:07:00;101788.25;;;4.82;56.47
61761;BME280;47664;51.660;-0.100;2023-01-30T10:09:39;101800.55;;;5.08;56.87
61761;BME280;47664;51.660;-0.100;2023-01-30T10:12:21;101807.60;;;5.31;56.41
61761;BME280;47664;51.660;-0.100;2023-01-30T10:15:06;101802.77;;;5.43;55.83
61761;BME280;47664;51.660;-0.100;2023-01-30T10:17:50;101790.08;;;4.72;55.84
61761;BME280;47664;51.660;-0.100;2023-01-30T10:20:30;101785.27;;;4.88;57.34
61761;BME280;47664;51.660;-0.100;2023-01-30T10:23:27;101790.32;;;5.23;56.93
61761;BME280;47664;51.660;-0.100;2023-01-30T10:26:06;101805.18;;;5.70;55.68
61761;BME280;47664;51.660;-0.100;2023-01-30T10:28:39;101812.77;;;5.88;54.88
61761;BME280;47664;51.660;-0.100;2023-01-30T10:31:15;101813.49;;;5.33;55.52
61761;BME280;47664;51.660;-0.100;2023-01-30T10:33:51;101813.70;;;4.84;56.79
61761;BME280;47664;51.660;-0.100;2023-01-30T10:36:33;101792.02;;;4.96;57.11
61761;BME280;47664;51.660;-0.100;2023-01-30T10:39:25;101785.78;;;4.76;57.64
61761;BME280;47664;51.660;-0.100;2023-01-30T10:41:58;101791.15;;;4.73;58.38
61761;BME280;47664;51.660;-0.100;2023-01-30T10:44:33;101798.44;;;5.08;57.57
61761;BME280;47664;51.660;-0.100;2023-01-30T10:47:14;101795.17;;;5.30;55.84
61761;BME280;47664;51.660;-0.100;2023-01-30T10:49:55;101792.32;;;5.20;55.98
61761;BME280;47664;51.660;-0.100;2023-01-30T10:52:35;101793.67;;;5.36;55.99
61761;BME280;47664;51.660;-0.100;2023-01-30T10:55:10;101803.56;;;5.15;55.78
61761;BME280;47664;51.660;-0.100;2023-01-30T10:57:50;101806.88;;;5.48;56.21
61761;BME280;47664;51.660;-0.100;2023-01-30T11:00:25;101816.95;;;5.72;56.24
61761;BME280;47664;51.660;-0.100;2023-01-30T11:03:09;101819.06;;;5.35;56.02
61761;BME280;47664;51.660;-0.100;2023-01-30T11:05:49;101813.23;;;5.22;56.32
61761;BME280;47664;51.660;-0.100;2023-01-30T11:08:22;101812.02;;;5.31;56.25
61761;BME280;47664;51.660;-0.100;2023-01-30T11:10:56;101813.83;;;5.01;56.44
61761;BME280;47664;51.660;-0.100;2023-01-30T11:13:28;101810.06;;;5.57;56.05
61761;BME280;47664;51.660;-0.100;2023-01-30T11:16:03;101808.21;;;5.65;55.65
61761;BME280;47664;51.660;-0.100;2023-01-30T11:18:43;101812.14;;;5.16;56.39
61761;BME280;47664;51.660;-0.100;2023-01-30T11:21:16;101821.95;;;5.49;56.31
61761;BME280;47664;51.660;-0.100;2023-01-30T11:23:52;101815.00;;;5.58;54.62
61761;BME280;47664;51.660;-0.100;2023-01-30T11:26:23;101829.86;;;5.74;55.91
61761;BME280;47664;51.660;-0.100;2023-01-30T11:28:55;101823.54;;;5.39;56.46
61761;BME280;47664;51.660;-0.100;2023-01-30T11:31:25;101821.07;;;5.35;56.36
61761;BME280;47664;51.660;-0.100;2023-01-30T11:33:59;101821.89;;;5.69;56.23
61761;BME280;47664;51.660;-0.100;2023-01-30T11:36:34;101821.92;;;5.45;55.68
61761;BME280;47664;51.660;-0.100;2023-01-30T11:39:17;101830.69;;;5.62;55.71
61761;BME280;47664;51.660;-0.100;2023-01-30T11:41:57;101838.99;;;5.73;56.02
61761;BME280;47664;51.660;-0.100;2023-01-30T11:44:31;101835.11;;;5.68;56.02
61761;BME280;47664;51.660;-0.100;2023-01-30T11:47:06;101836.96;;;5.44;56.49
61761;BME280;47664;51.660;-0.100;2023-01-30T11:49:38;101834.76;;;5.53;55.57
61761;BME280;47664;51.660;-0.100;2023-01-30T11:52:15;101825.21;;;5.91;55.39
61761;BME280;47664;51.660;-0.100;2023-01-30T11:54:48;101822.58;;;5.83;55.34
61761;BME280;47664;51.660;-0.100;2023-01-30T11:57:22;101817.63;;;5.91;55.77
61761;BME280;47664;51.660;-0.100;2023-01-30T11:59:54;101819.27;;;5.53;55.35
61761;BME280;47664;51.660;-0.100;2023-01-30T12:02:30;101825.09;;;6.02;55.55
61761;BME280;47664;51.660;-0.100;2023-01-30T12:05:06;101828.74;;;6.18;54.37
61761;BME280;47664;51.660;-0.100;2023-01-30T12:07:36;101832.95;;;6.16;53.98
61761;BME280;47664;51.660;-0.100;2023-01-30T12:10:25;101833.23;;;6.40;54.08
61761;BME280;47664;51.660;-0.100;2023-01-30T12:12:58;101828.57;;;6.08;54.31
61761;BME280;47664;51.660;-0.100;2023-01-30T12:15:33;101834.33;;;6.50;54.80
61761;BME280;47664;51.660;-0.100;2023-01-30T12:18:11;101828.91;;;5.80;54.99
61761;BME280;47664;51.660;-0.100;2023-01-30T12:20:47;101831.52;;;5.90;55.32
61761;BME280;47664;51.660;-0.100;2023-01-30T12:23:26;101837.40;;;6.42;54.59
61761;BME280;47664;51.660;-0.100;2023-01-30T12:26:01;101841.29;;;6.37;54.72
61761;BME280;47664;51.660;-0.100;2023-01-30T12:28:38;101839.61;;;6.17;53.63
61761;BME280;47664;51.660;-0.100;2023-01-30T12:31:12;101831.67;;;6.64;53.85
61761;BME280;47664;51.660;-0.100;2023-01-30T12:33:47;101832.88;;;6.32;55.07
61761;BME280;47664;51.660;-0.100;2023-01-30T12:36:24;101835.15;;;6.29;54.35
61761;BME280;47664;51.660;-0.100;2023-01-30T12:39:04;101831.27;;;6.24;54.58
61761;BME280;47664;51.660;-0.100;2023-01-30T12:41:41;101825.26;;;6.70;52.92
61761;BME280;47664;51.660;-0.100;2023-01-30T12:44:31;101825.17;;;6.63;53.53
61761;BME280;47664;51.660;-0.100;2023-01-30T12:47:45;101827.73;;;6.62;52.16
61761;BME280;47664;51.660;-0.100;2023-01-30T12:50:24;101830.17;;;6.79;52.34
61761;BME280;47664;51.660;-0.100;2023-01-30T12:53:06;101828.46;;;6.57;52.81
61761;BME280;47664;51.660;-0.100;2023-01-30T12:55:47;101838.19;;;6.28;51.30
61761;BME280;47664;51.660;-0.100;2023-01-30T12:58:26;101839.66;;;6.90;52.01
61761;BME280;47664;51.660;-0.100;2023-01-30T13:01:08;101834.82;;;6.74;51.60
61761;BME280;47664;51.660;-0.100;2023-01-30T13:03:51;101830.59;;;6.93;51.42
61761;BME280;47664;51.660;-0.100;2023-01-30T13:06:35;101837.02;;;6.83;50.90
61761;BME280;47664;51.660;-0.100;2023-01-30T13:09:19;101832.11;;;7.27;51.78
61761;BME280;47664;51.660;-0.100;2023-01-30T13:11:57;101827.46;;;6.87;52.13
61761;BME280;47664;51.660;-0.100;2023-01-30T13:14:34;101824.76;;;6.75;52.26
61761;BME280;47664;51.660;-0.100;2023-01-30T13:17:17;101821.67;;;6.87;53.60
61761;BME280;47664;51.660;-0.100;2023-01-30T13:19:53;101823.46;;;6.20;53.62
61761;BME280;47664;51.660;-0.100;2023-01-30T13:22:29;101823.93;;;5.93;54.32
61761;BME280;47664;51.660;-0.100;2023-01-30T13:25:05;101825.08;;;6.38;53.99
61761;BME280;47664;51.660;-0.100;2023-01-30T13:27:42;101828.66;;;6.30;53.76
61761;BME280;47664;51.660;-0.100;2023-01-30T13:30:15;101826.08;;;6.58;53.29